Time;durP1;ratioP1;P1;durP2;ratioP2;P2;SDS_P1;SDS_P2;PMS_P1;PMS_P2;Temp;Humidity;BMP_temperature;BMP_pressure;BME280_temperature;BME280_humidity;BME280_pressure;Samples;Min_cycle;Max_cycle;Signal;HPM_P1;HPM_P2
2023/02/09 00:01:12;;;;;;;20.75;14.40;;;2.20;97.30;;;;;;5033022;28;20237;-75
2023/02/09 00:03:40;;;;;;;21.95;14.85;;;2.30;97.40;;;;;;5024077;28;20222;-79
2023/02/09 00:06:08;;;;;;;17.50;13.77;;;2.20;97.20;;;;;;5033690;28;20280;-79
2023/02/09 00:08:37;;;;;;;19.20;14.75;;;2.30;97.30;;;;;;5032747;28;20229;-76
2023/02/09 00:11:07;;;;;;;22.10;14.95;;;2.30;97.20;;;;;;5033469;28;20698;-75
2023/02/09 00:13:33;;;;;;;17.65;12.38;;;2.30;97.20;;;;;;5033006;28;20243;-76
2023/02/09 00:16:02;;;;;;;20.00;13.65;;;2.30;97.20;;;;;;5033426;28;20221;-76
2023/02/09 00:18:30;;;;;;;19.70;14.20;;;2.20;97.00;;;;;;5033185;28;20221;-78
2023/02/09 00:20:59;;;;;;;21.88;15.05;;;2.20;97.10;;;;;;5028719;28;20233;-76
2023/02/09 00:23:26;;;;;;;17.02;13.10;;;2.20;97.10;;;;;;5033291;28;20252;-79
2023/02/09 00:25:55;;;;;;;19.98;13.63;;;2.20;97.20;;;;;;5032658;28;20332;-79
2023/02/09 00:28:22;;;;;;;18.20;13.90;;;2.20;97.00;;;;;;5033218;28;20222;-79
2023/02/09 00:30:51;;;;;;;22.00;14.90;;;2.20;97.10;;;;;;5031335;28;20229;-77
2023/02/09 00:33:18;;;;;;;19.30;16.10;;;2.20;97.20;;;;;;5033482;28;20221;-75
2023/02/09 00:35:46;;;;;;;23.02;15.38;;;2.10;97.20;;;;;;5032746;28;20236;-77
2023/02/09 00:38:14;;;;;;;19.38;13.63;;;2.10;97.00;;;;;;5031653;28;20232;-80
2023/02/09 00:40:46;;;;;;;18.90;14.23;;;2.10;97.10;;;;;;5032637;28;20304;-77
2023/02/09 00:43:14;;;;;;;23.48;15.60;;;2.10;97.10;;;;;;5033093;28;20233;-77
2023/02/09 00:45:41;;;;;;;22.73;15.60;;;2.10;97.10;;;;;;5019840;28;20548;-80
2023/02/09 00:48:08;;;;;;;21.98;15.73;;;2.00;97.00;;;;;;5033081;28;20728;-76
2023/02/09 00:50:35;;;;;;;22.17;15.13;;;2.00;97.10;;;;;;5032472;28;20222;-79
2023/02/09 00:53:02;;;;;;;18.60;13.55;;;2.00;97.20;;;;;;5033240;28;20266;-80
2023/02/09 00:55:29;;;;;;;23.33;15.82;;;2.00;97.20;;;;;;5032790;28;20225;-77
2023/02/09 00:57:56;;;;;;;20.00;15.57;;;2.10;97.20;;;;;;5031694;28;20217;-77
2023/02/09 01:00:25;;;;;;;19.70;13.95;;;2.00;97.10;;;;;;5032625;28;20226;-77
2023/02/09 01:02:52;;;;;;;23.65;14.27;;;2.00;97.20;;;;;;5032050;28;20230;-79
2023/02/09 01:05:19;;;;;;;22.98;15.18;;;1.90;97.30;;;;;;5032236;28;20272;-80
2023/02/09 01:07:46;;;;;;;21.00;13.55;;;1.90;97.30;;;;;;5032293;28;20678;-80
2023/02/09 01:10:16;;;;;;;20.30;15.35;;;2.00;97.40;;;;;;5032644;28;20287;-77
2023/02/09 01:12:44;;;;;;;21.02;15.02;;;2.00;97.50;;;;;;5027092;28;20272;-80
2023/02/09 01:15:13;;;;;;;20.33;14.00;;;2.00;97.40;;;;;;5032730;28;20232;-77
2023/02/09 01:17:41;;;;;;;15.65;12.18;;;1.90;97.10;;;;;;5032448;28;20283;-79
2023/02/09 01:20:11;;;;;;;21.20;14.48;;;1.90;97.20;;;;;;5031132;28;20229;-80
2023/02/09 01:22:39;;;;;;;18.58;14.15;;;1.80;97.20;;;;;;5032090;28;20256;-80
2023/02/09 01:25:08;;;;;;;25.92;14.80;;;1.80;97.30;;;;;;5032793;28;20299;-80
2023/02/09 01:27:36;;;;;;;20.08;12.43;;;1.90;97.30;;;;;;5031804;28;20622;-77
2023/02/09 01:30:07;;;;;;;18.40;14.25;;;1.90;97.20;;;;;;5032709;28;20295;-77
2023/02/09 01:32:36;;;;;;;22.20;14.48;;;1.90;97.20;;;;;;5032574;28;20233;-77
2023/02/09 01:35:21;;;;;;;18.65;15.63;;;1.80;97.10;;;;;;5032377;28;20310;-79
2023/02/09 01:37:48;;;;;;;18.00;14.02;;;1.80;97.20;;;;;;5031780;28;20691;-77
2023/02/09 01:40:18;;;;;;;17.80;13.00;;;1.80;97.20;;;;;;5032181;28;20718;-77
2023/02/09 01:42:45;;;;;;;18.35;13.65;;;1.80;97.30;;;;;;5031560;28;20236;-77
2023/02/09 01:45:21;;;;;;;18.75;13.55;;;1.80;97.40;;;;;;5032559;28;20374;-80
2023/02/09 01:47:54;;;;;;;17.40;13.40;;;1.80;97.30;;;;;;5031298;28;20249;-80
2023/02/09 01:50:24;;;;;;;21.40;13.25;;;1.80;97.00;;;;;;5032522;28;20324;-80
2023/02/09 01:52:51;;;;;;;18.08;14.10;;;1.80;97.10;;;;;;5031754;28;20221;-80
2023/02/09 01:55:24;;;;;;;17.55;12.90;;;1.80;97.10;;;;;;5031683;28;20225;-80
2023/02/09 01:57:55;;;;;;;23.45;14.23;;;1.80;97.00;;;;;;5025193;28;20237;-80
2023/02/09 02:00:24;;;;;;;21.90;14.73;;;1.80;97.10;;;;;;5032493;28;20275;-80
2023/02/09 02:02:58;;;;;;;16.83;12.77;;;1.80;97.10;;;;;;5032090;28;20230;-77
2023/02/09 02:05:28;;;;;;;15.98;12.98;;;1.80;97.20;;;;;;5031721;28;20685;-77
2023/02/09 02:08:02;;;;;;;18.90;13.60;;;1.80;97.20;;;;;;5031999;28;20241;-77
2023/02/09 02:10:30;;;;;;;20.42;13.43;;;1.70;97.00;;;;;;5032470;28;20367;-76
2023/02/09 02:12:57;;;;;;;22.38;14.02;;;1.70;97.10;;;;;;5040733;28;20257;-79
2023/02/09 02:15:29;;;;;;;18.45;13.90;;;1.70;97.10;;;;;;5034099;28;20221;-79
2023/02/09 02:18:30;;;;;;;17.15;11.63;;;1.60;97.10;;;;;;5034314;28;20291;-77
2023/02/09 02:21:32;;;;;;;17.70;12.18;;;1.60;97.10;;;;;;5026034;28;20226;-76
2023/02/09 02:24:18;;;;;;;15.55;10.98;;;1.60;97.10;;;;;;4994516;28;20233;-76
2023/02/09 02:26:58;;;;;;;17.75;12.93;;;1.60;97.20;;;;;;5031877;28;20579;-80
2023/02/09 02:30:01;;;;;;;18.20;13.25;;;1.60;97.10;;;;;;5032130;28;20694;-76
2023/02/09 02:32:47;;;;;;;18.13;13.00;;;1.50;96.90;;;;;;5024612;28;20229;-76
2023/02/09 02:35:24;;;;;;;15.75;12.55;;;1.50;97.10;;;;;;5035200;28;20233;-77
2023/02/09 02:38:01;;;;;;;15.93;13.35;;;1.40;97.10;;;;;;5035097;28;20616;-80
2023/02/09 02:40:40;;;;;;;19.90;13.55;;;1.40;97.10;;;;;;5034435;28;20721;-76
2023/02/09 02:43:13;;;;;;;20.98;13.07;;;1.30;97.10;;;;;;5033333;28;20225;-76
2023/02/09 02:45:45;;;;;;;17.67;12.70;;;1.30;97.20;;;;;;5034429;28;20229;-80
2023/02/09 02:48:27;;;;;;;16.88;13.60;;;1.30;97.30;;;;;;5034434;28;20575;-76
2023/02/09 02:50:59;;;;;;;17.45;12.15;;;1.40;97.40;;;;;;5034657;28;20283;-78
2023/02/09 02:53:30;;;;;;;14.07;11.70;;;1.40;97.40;;;;;;5033338;28;20295;-79
2023/02/09 02:56:02;;;;;;;15.57;10.43;;;1.40;97.20;;;;;;5033031;28;20268;-76
2023/02/09 02:58:31;;;;;;;18.95;11.63;;;1.40;97.20;;;;;;5033252;28;20655;-76
2023/02/09 03:01:01;;;;;;;16.40;12.55;;;1.40;97.20;;;;;;5032312;28;20610;-76
2023/02/09 03:03:33;;;;;;;16.15;10.68;;;1.40;97.00;;;;;;5033368;28;20236;-76
2023/02/09 03:06:04;;;;;;;17.17;11.77;;;1.30;97.10;;;;;;5033160;28;20233;-80
2023/02/09 03:08:31;;;;;;;16.85;12.60;;;1.30;97.10;;;;;;5034891;28;20683;-76
2023/02/09 03:11:02;;;;;;;20.55;12.55;;;1.30;97.20;;;;;;5035678;28;20291;-76
2023/02/09 03:13:40;;;;;;;14.65;10.80;;;1.30;97.20;;;;;;5035227;28;20283;-76
2023/02/09 03:16:26;;;;;;;15.45;11.10;;;1.30;97.30;;;;;;5034516;28;20226;-76
2023/02/09 03:19:04;;;;;;;18.67;11.70;;;1.30;97.20;;;;;;5034626;28;20228;-76
2023/02/09 03:21:42;;;;;;;14.80;11.50;;;1.40;97.20;;;;;;5034694;28;20229;-76
2023/02/09 03:24:15;;;;;;;14.57;12.30;;;1.30;97.10;;;;;;5034872;28;20251;-76
2023/02/09 03:26:49;;;;;;;20.95;13.25;;;1.30;97.10;;;;;;5035167;28;20291;-76
2023/02/09 03:29:18;;;;;;;16.77;10.98;;;1.30;97.30;;;;;;5034540;28;20240;-76
2023/02/09 03:31:47;;;;;;;14.77;12.00;;;1.30;97.20;;;;;;5034343;28;20233;-76
2023/02/09 03:34:16;;;;;;;20.80;12.15;;;1.30;97.10;;;;;;5034003;28;20229;-76
2023/02/09 03:36:45;;;;;;;14.38;11.65;;;1.30;97.10;;;;;;5034987;28;20225;-76
2023/02/09 03:39:14;;;;;;;18.08;12.27;;;1.30;97.20;;;;;;5034148;28;20230;-76
2023/02/09 03:41:42;;;;;;;14.35;10.95;;;1.30;97.30;;;;;;5034940;28;20271;-76
2023/02/09 03:44:27;;;;;;;15.13;11.00;;;1.30;97.00;;;;;;5035520;28;20726;-80
2023/02/09 03:46:56;;;;;;;15.98;10.50;;;1.30;97.10;;;;;;5035650;28;20296;-76
2023/02/09 03:49:25;;;;;;;17.08;10.48;;;1.30;96.90;;;;;;5034125;28;20295;-79
2023/02/09 03:51:53;;;;;;;14.25;11.32;;;1.20;96.70;;;;;;5033001;28;20225;-79
2023/02/09 03:54:21;;;;;;;14.57;11.77;;;1.20;96.80;;;;;;5033936;28;20217;-80
2023/02/09 03:56:49;;;;;;;20.35;12.32;;;1.20;96.80;;;;;;5034656;28;20235;-76
2023/02/09 03:59:16;;;;;;;17.13;12.70;;;1.20;96.80;;;;;;5033759;28;20229;-76
2023/02/09 04:01:47;;;;;;;18.42;12.80;;;1.20;96.90;;;;;;5033868;28;20308;-76
2023/02/09 04:04:14;;;;;;;17.67;13.25;;;1.20;96.90;;;;;;5034506;28;20271;-80
2023/02/09 04:06:42;;;;;;;18.85;12.35;;;1.10;96.80;;;;;;5033316;28;20249;-80
2023/02/09 04:09:10;;;;;;;18.65;12.65;;;1.10;96.80;;;;;;5034212;28;20312;-78
2023/02/09 04:11:38;;;;;;;18.13;13.00;;;1.10;96.90;;;;;;5034180;28;20280;-76
2023/02/09 04:14:05;;;;;;;15.02;11.20;;;1.10;97.10;;;;;;5023420;28;20233;-76
2023/02/09 04:16:32;;;;;;;15.75;13.23;;;1.00;97.10;;;;;;5033544;28;20221;-80
2023/02/09 04:18:59;;;;;;;14.52;11.23;;;1.10;97.10;;;;;;5033909;28;20231;-75
2023/02/09 04:21:26;;;;;;;17.23;12.70;;;1.00;97.00;;;;;;5033918;28;20251;-76
2023/02/09 04:23:54;;;;;;;16.15;11.38;;;1.10;97.10;;;;;;5036335;28;20220;-79
2023/02/09 04:26:24;;;;;;;20.95;12.60;;;1.00;97.00;;;;;;5032799;28;20226;-76
2023/02/09 04:28:51;;;;;;;16.02;11.23;;;1.00;97.00;;;;;;5033950;28;20217;-76
2023/02/09 04:31:18;;;;;;;19.10;12.70;;;1.00;97.10;;;;;;5033126;28;20236;-76
2023/02/09 04:33:45;;;;;;;15.52;11.23;;;1.00;97.00;;;;;;5033207;28;20687;-75
2023/02/09 04:36:14;;;;;;;16.27;13.35;;;0.90;97.10;;;;;;5033105;28;20590;-76
2023/02/09 04:38:41;;;;;;;17.13;12.90;;;0.90;97.30;;;;;;5033638;28;20229;-79
2023/02/09 04:41:09;;;;;;;18.73;12.82;;;0.90;97.30;;;;;;5032933;28;20292;-80
2023/02/09 04:43:36;;;;;;;14.98;11.73;;;0.90;97.30;;;;;;5033510;28;20280;-77
2023/02/09 04:46:03;;;;;;;18.00;13.55;;;0.90;97.20;;;;;;5033409;28;20229;-79
2023/02/09 04:48:30;;;;;;;18.30;12.98;;;0.90;97.30;;;;;;5032272;28;20217;-75
2023/02/09 04:50:57;;;;;;;15.20;11.55;;;1.00;97.40;;;;;;5033107;28;20225;-75
2023/02/09 04:53:26;;;;;;;17.63;12.95;;;1.00;97.40;;;;;;5032682;28;20691;-75
2023/02/09 04:55:53;;;;;;;19.77;13.43;;;1.00;97.40;;;;;;5031636;28;20221;-77
2023/02/09 05:01:08;;;;;;;16.95;13.23;;;1.00;97.40;;;;;;5033197;28;20263;-80
2023/02/09 05:03:35;;;;;;;17.65;13.05;;;1.00;97.80;;;;;;5032155;28;20279;-79
2023/02/09 05:06:03;;;;;;;18.67;13.23;;;1.00;97.50;;;;;;5032947;28;20229;-80
2023/02/09 05:08:31;;;;;;;18.80;13.63;;;1.00;97.50;;;;;;5032620;28;20302;-77
2023/02/09 05:10:58;;;;;;;18.55;13.45;;;1.10;97.40;;;;;;5033149;28;20575;-80
2023/02/09 05:13:28;;;;;;;17.92;13.15;;;1.00;97.10;;;;;;5031430;28;20308;-80
2023/02/09 05:15:55;;;;;;;16.90;12.65;;;1.00;97.20;;;;;;5033122;28;20229;-77
2023/02/09 05:18:23;;;;;;;16.80;11.98;;;1.10;97.30;;;;;;5031934;28;20221;-80
2023/02/09 05:20:50;;;;;;;19.48;12.93;;;1.00;97.20;;;;;;5032867;28;20236;-80
2023/02/09 05:23:18;;;;;;;18.65;13.10;;;1.00;97.10;;;;;;5032472;28;20695;-76
2023/02/09 05:25:46;;;;;;;19.02;12.15;;;1.00;97.10;;;;;;5033519;28;20283;-77
2023/02/09 05:28:13;;;;;;;18.65;13.05;;;1.00;97.10;;;;;;5032209;28;20233;-79
2023/02/09 05:30:42;;;;;;;14.95;12.27;;;0.90;97.10;;;;;;5032827;28;20249;-80
2023/02/09 05:33:09;;;;;;;19.17;12.75;;;0.90;97.10;;;;;;5032853;28;20243;-80
2023/02/09 05:35:36;;;;;;;21.40;14.50;;;0.80;97.20;;;;;;5032080;28;20221;-80
2023/02/09 05:38:03;;;;;;;19.17;13.88;;;0.80;97.30;;;;;;5033136;28;20304;-80
2023/02/09 05:40:30;;;;;;;19.88;13.32;;;0.80;97.10;;;;;;5032028;28;20240;-80
2023/02/09 05:43:01;;;;;;;18.42;12.32;;;0.70;97.10;;;;;;5032893;28;20217;-80
2023/02/09 05:45:28;;;;;;;21.30;14.32;;;0.70;97.10;;;;;;5033114;28;20697;-80
2023/02/09 05:47:57;;;;;;;19.05;13.07;;;0.70;97.20;;;;;;5032779;28;20229;-79
2023/02/09 05:50:24;;;;;;;14.55;11.80;;;0.60;97.20;;;;;;5032107;28;20244;-80
2023/02/09 05:52:51;;;;;;;21.70;13.10;;;0.60;97.30;;;;;;5021878;28;20225;-76
2023/02/09 05:55:19;;;;;;;16.98;11.93;;;0.60;97.40;;;;;;5021603;28;20222;-79
2023/02/09 05:57:46;;;;;;;17.40;13.52;;;0.50;97.30;;;;;;5031951;28;20217;-77
2023/02/09 06:00:17;;;;;;;15.20;12.05;;;0.50;97.50;;;;;;5032894;28;20233;-80
2023/02/09 06:02:44;;;;;;;18.48;12.15;;;0.60;97.60;;;;;;5031368;28;20221;-77
2023/02/09 06:05:16;;;;;;;16.75;12.35;;;0.60;97.50;;;;;;5032396;28;20229;-76
2023/02/09 06:07:43;;;;;;;18.08;13.20;;;0.60;97.50;;;;;;5034760;28;20386;-77
2023/02/09 06:10:10;;;;;;;19.38;12.23;;;0.60;97.50;;;;;;5036161;28;20234;-77
2023/02/09 06:12:40;;;;;;;23.00;13.55;;;0.60;97.50;;;;;;5035361;28;20375;-76
2023/02/09 06:15:09;;;;;;;18.55;11.13;;;0.60;97.30;;;;;;5036063;28;20567;-76
2023/02/09 06:17:37;;;;;;;19.60;14.82;;;0.70;97.40;;;;;;5035228;28;20233;-76
2023/02/09 06:20:05;;;;;;;16.75;13.13;;;0.60;97.20;;;;;;5035881;28;20598;-77
2023/02/09 06:22:34;;;;;;;15.52;11.05;;;0.60;97.20;;;;;;5035426;28;20283;-77
2023/02/09 06:25:01;;;;;;;18.05;11.85;;;0.60;97.30;;;;;;5036019;28;20233;-80
2023/02/09 06:27:28;;;;;;;16.73;11.48;;;0.60;97.50;;;;;;5033771;28;20240;-80
2023/02/09 06:29:56;;;;;;;15.90;12.95;;;0.70;97.30;;;;;;5035877;28;20225;-80
2023/02/09 06:32:23;;;;;;;14.13;11.38;;;0.70;97.30;;;;;;5035892;28;20565;-80
2023/02/09 06:34:50;;;;;;;16.92;12.00;;;0.70;97.40;;;;;;5034602;28;20241;-80
2023/02/09 06:37:17;;;;;;;16.40;11.27;;;0.70;97.10;;;;;;5034675;28;20240;-77
2023/02/09 06:39:45;;;;;;;15.30;12.18;;;0.70;97.10;;;;;;5035160;28;20671;-77
2023/02/09 06:42:12;;;;;;;18.33;11.80;;;0.70;97.20;;;;;;5034984;28;20226;-77
2023/02/09 06:44:40;;;;;;;20.00;12.38;;;0.80;97.10;;;;;;5035214;28;20312;-79
2023/02/09 06:47:07;;;;;;;17.35;12.32;;;0.80;97.10;;;;;;5035521;28;20232;-76
2023/02/09 06:49:34;;;;;;;19.08;12.82;;;0.80;97.10;;;;;;5024636;28;20237;-76
2023/02/09 06:52:01;;;;;;;19.95;13.80;;;0.80;97.00;;;;;;5034495;28;20221;-76
2023/02/09 06:54:32;;;;;;;16.60;12.68;;;0.90;97.20;;;;;;5035313;28;20283;-76
2023/02/09 06:57:03;;;;;;;18.02;12.90;;;0.80;97.10;;;;;;5034469;28;20221;-79
2023/02/09 06:59:31;;;;;;;18.90;14.65;;;0.80;96.90;;;;;;5035258;28;20229;-76
2023/02/09 07:02:00;;;;;;;21.17;14.60;;;0.80;97.00;;;;;;5034067;28;20217;-79
2023/02/09 07:04:27;;;;;;;23.90;15.30;;;0.80;97.10;;;;;;5032830;28;20309;-79
2023/02/09 07:06:54;;;;;;;24.45;18.00;;;0.80;97.00;;;;;;5034539;28;20244;-76
2023/02/09 07:09:21;;;;;;;29.15;17.00;;;0.80;97.10;;;;;;5034733;28;20240;-77
2023/02/09 07:11:48;;;;;;;24.73;18.27;;;0.80;97.20;;;;;;5034836;28;20230;-76
2023/02/09 07:14:16;;;;;;;25.95;16.45;;;0.80;97.30;;;;;;5035021;28;20316;-76
2023/02/09 07:16:43;;;;;;;21.38;15.18;;;0.90;97.40;;;;;;5034437;28;20221;-76
2023/02/09 07:19:10;;;;;;;23.98;14.07;;;0.80;97.10;;;;;;5033010;28;20225;-76
2023/02/09 07:21:37;;;;;;;20.40;13.35;;;0.90;97.30;;;;;;5035597;28;20606;-77
2023/02/09 07:24:05;;;;;;;16.90;11.93;;;1.00;97.30;;;;;;5034763;28;20221;-80
2023/02/09 07:26:32;;;;;;;19.77;13.77;;;1.00;97.20;;;;;;5034730;28;20225;-80
2023/02/09 07:29:02;;;;;;;21.50;14.18;;;1.00;97.00;;;;;;5033759;28;20271;-80
2023/02/09 07:31:30;;;;;;;16.58;12.63;;;1.00;96.90;;;;;;5034460;28;20234;-80
2023/02/09 07:33:57;;;;;;;26.20;13.70;;;1.00;97.00;;;;;;5033820;28;20308;-80
2023/02/09 07:36:25;;;;;;;21.40;13.32;;;1.00;97.00;;;;;;5034131;28;20234;-80
2023/02/09 07:38:52;;;;;;;19.27;11.80;;;1.10;97.00;;;;;;5034238;28;20225;-80
2023/02/09 07:41:21;;;;;;;21.33;13.93;;;1.10;96.90;;;;;;5034267;28;20229;-81
2023/02/09 07:43:48;;;;;;;16.83;12.88;;;1.10;96.80;;;;;;5033835;28;20273;-80
2023/02/09 07:46:17;;;;;;;16.50;12.70;;;1.10;96.70;;;;;;5033712;28;20287;-77
2023/02/09 07:48:46;;;;;;;20.58;13.10;;;1.20;96.80;;;;;;5033961;28;20226;-80
2023/02/09 07:51:14;;;;;;;17.63;13.38;;;1.20;96.70;;;;;;5034013;28;20237;-80
2023/02/09 07:53:43;;;;;;;19.88;12.80;;;1.20;96.80;;;;;;5033482;28;20230;-78
2023/02/09 07:56:13;;;;;;;18.20;13.35;;;1.20;96.80;;;;;;5020586;28;20225;-78
2023/02/09 07:58:44;;;;;;;35.10;18.83;;;1.20;96.70;;;;;;5023265;28;20244;-75
2023/02/09 08:01:16;;;;;;;30.17;18.15;;;1.20;96.70;;;;;;5030654;28;20691;-78
2023/02/09 08:03:47;;;;;;;19.75;15.18;;;1.20;96.70;;;;;;5033571;28;20567;-77
2023/02/09 08:06:19;;;;;;;21.08;13.18;;;1.20;96.40;;;;;;5025226;28;20233;-78
2023/02/09 08:08:49;;;;;;;16.23;13.00;;;1.20;96.40;;;;;;5033152;28;20217;-78
2023/02/09 08:11:20;;;;;;;19.60;13.18;;;1.20;96.60;;;;;;5032713;28;20256;-76
2023/02/09 08:13:47;;;;;;;19.95;13.85;;;1.30;96.70;;;;;;5032593;28;20229;-76
2023/02/09 08:16:23;;;;;;;20.40;14.60;;;1.30;96.60;;;;;;5032622;28;20291;-80
2023/02/09 08:18:55;;;;;;;21.95;13.75;;;1.30;96.40;;;;;;5033770;28;20236;-77
2023/02/09 08:21:23;;;;;;;20.27;13.02;;;1.30;96.40;;;;;;5033260;28;20255;-76
2023/02/09 08:23:55;;;;;;;21.90;13.50;;;1.30;96.50;;;;;;5033824;28;20306;-76
2023/02/09 08:26:23;;;;;;;17.90;12.55;;;1.40;96.50;;;;;;5032970;28;20221;-77
2023/02/09 08:28:51;;;;;;;19.90;14.50;;;1.40;96.50;;;;;;5033107;28;20556;-77
2023/02/09 08:31:27;;;;;;;22.42;13.75;;;1.40;96.20;;;;;;5023073;28;20229;-77
2023/02/09 08:33:56;;;;;;;17.38;12.77;;;1.50;96.30;;;;;;5033038;28;20233;-80
2023/02/09 08:36:23;;;;;;;20.77;13.90;;;1.50;96.20;;;;;;5032543;28;20225;-80
2023/02/09 08:38:52;;;;;;;18.17;13.02;;;1.50;96.00;;;;;;5032795;28;20290;-80
2023/02/09 08:41:19;;;;;;;17.05;12.40;;;1.60;96.00;;;;;;5032957;28;20295;-80
2023/02/09 08:43:49;;;;;;;16.45;13.05;;;1.70;96.10;;;;;;5033594;28;20312;-80
2023/02/09 08:46:21;;;;;;;21.02;12.13;;;1.70;96.00;;;;;;5031800;28;20229;-81
2023/02/09 08:48:53;;;;;;;20.58;12.00;;;1.80;95.90;;;;;;5032819;28;20662;-79
2023/02/09 08:51:22;;;;;;;21.23;14.13;;;1.90;95.90;;;;;;5032439;28;20365;-80
2023/02/09 08:53:51;;;;;;;15.70;12.40;;;1.90;95.60;;;;;;5033193;28;20315;-80
2023/02/09 08:56:41;;;;;;;16.98;11.60;;;1.90;95.50;;;;;;5033171;28;20225;-79
2023/02/09 08:59:13;;;;;;;21.70;12.15;;;2.00;95.40;;;;;;5032256;28;20391;-76
2023/02/09 09:01:42;;;;;;;13.68;11.35;;;2.10;95.40;;;;;;5033113;28;20240;-76
2023/02/09 09:04:09;;;;;;;15.15;11.90;;;2.20;95.40;;;;;;5032301;28;20236;-76
2023/02/09 09:06:38;;;;;;;21.70;14.02;;;2.20;95.30;;;;;;5031241;28;20221;-79
2023/02/09 09:09:06;;;;;;;16.92;12.88;;;2.20;95.10;;;;;;5032137;28;20283;-79
2023/02/09 09:11:33;;;;;;;17.27;13.10;;;2.30;95.10;;;;;;5031657;28;20659;-79
2023/02/09 09:14:00;;;;;;;21.85;15.50;;;2.40;95.00;;;;;;5032292;28;20308;-79
2023/02/09 09:16:29;;;;;;;23.05;15.05;;;2.40;95.00;;;;;;5033383;28;20240;-78
2023/02/09 09:18:56;;;;;;;16.25;13.30;;;2.40;94.70;;;;;;5032863;28;20331;-76
2023/02/09 09:21:23;;;;;;;20.55;12.55;;;2.50;94.70;;;;;;5031390;28;20241;-75
2023/02/09 09:23:52;;;;;;;16.98;12.85;;;2.60;94.80;;;;;;5034086;28;20221;-80
2023/02/09 09:26:22;;;;;;;17.08;11.18;;;2.70;94.80;;;;;;5034065;28;20229;-79
2023/02/09 09:28:50;;;;;;;13.90;10.88;;;2.70;94.80;;;;;;5032561;28;20556;-79
2023/02/09 09:31:21;;;;;;;19.33;12.90;;;2.90;94.90;;;;;;5031122;28;20307;-79
2023/02/09 09:33:48;;;;;;;15.57;11.90;;;2.90;94.80;;;;;;5032674;28;20229;-79
2023/02/09 09:36:15;;;;;;;19.45;12.35;;;3.00;94.80;;;;;;5022174;28;20722;-78
2023/02/09 09:38:44;;;;;;;16.77;11.88;;;3.00;94.50;;;;;;5031123;28;20264;-76
2023/02/09 09:41:22;;;;;;;17.08;12.55;;;3.10;94.30;;;;;;5022122;28;20244;-76
2023/02/09 09:43:50;;;;;;;14.95;11.60;;;3.20;94.10;;;;;;5034883;28;20283;-76
2023/02/09 09:46:20;;;;;;;21.65;13.65;;;3.20;94.00;;;;;;5036432;28;20670;-76
2023/02/09 09:48:51;;;;;;;17.10;11.20;;;3.30;93.90;;;;;;5035273;28;24664;-76
2023/02/09 09:51:27;;;;;;;16.20;12.27;;;3.30;93.50;;;;;;5036344;28;20248;-80
2023/02/09 09:53:59;;;;;;;14.50;12.35;;;3.40;93.50;;;;;;5035454;28;20327;-79
2023/02/09 09:56:31;;;;;;;16.15;11.25;;;3.30;93.10;;;;;;5036082;28;20228;-79
2023/02/09 09:59:01;;;;;;;17.25;10.85;;;3.30;93.10;;;;;;5035541;28;20568;-76
2023/02/09 10:01:32;;;;;;;12.00;10.10;;;3.40;92.90;;;;;;5035917;28;20260;-76
2023/02/09 10:04:00;;;;;;;16.52;12.00;;;3.40;93.00;;;;;;5035658;28;20225;-79
2023/02/09 10:06:36;;;;;;;16.85;11.40;;;3.50;93.00;;;;;;5033135;28;20630;-76
2023/02/09 10:09:09;;;;;;;21.60;12.25;;;3.60;93.20;;;;;;4987143;28;20761;-76
2023/02/09 10:11:51;;;;;;;17.52;12.10;;;3.70;93.30;;;;;;4962719;28;20229;-76
2023/02/09 10:14:18;;;;;;;18.95;11.25;;;3.70;92.70;;;;;;4983867;28;20232;-76
2023/02/09 10:16:48;;;;;;;14.70;10.45;;;3.70;92.60;;;;;;4935640;28;20233;-80
2023/02/09 10:19:20;;;;;;;12.05;9.10;;;3.80;92.30;;;;;;4935638;28;20279;-77
2023/02/09 10:21:50;;;;;;;14.52;10.27;;;3.80;91.70;;;;;;4981956;28;20252;-77
2023/02/09 10:24:25;;;;;;;13.88;11.25;;;3.90;91.90;;;;;;4989947;28;20239;-76
2023/02/09 10:27:07;;;;;;;13.43;10.38;;;3.90;91.40;;;;;;4931205;28;20229;-81
2023/02/09 10:29:35;;;;;;;14.40;9.88;;;4.00;91.30;;;;;;4958170;28;20300;-77
2023/02/09 10:32:13;;;;;;;13.63;9.90;;;4.10;91.20;;;;;;5001619;28;20225;-76
2023/02/09 10:34:47;;;;;;;13.23;10.18;;;4.10;91.10;;;;;;4937273;28;20705;-77
2023/02/09 10:37:21;;;;;;;15.90;8.43;;;4.20;90.70;;;;;;4934220;28;20314;-79
2023/02/09 10:39:56;;;;;;;14.57;8.80;;;4.20;90.20;;;;;;4935444;28;20239;-79
2023/02/09 10:42:29;;;;;;;16.13;9.43;;;4.30;90.10;;;;;;4987016;28;20308;-80
2023/02/09 10:45:04;;;;;;;13.52;10.93;;;4.30;89.20;;;;;;4935722;28;20229;-80
2023/02/09 10:47:32;;;;;;;12.38;10.00;;;4.30;89.50;;;;;;4989029;28;20308;-79
2023/02/09 10:50:13;;;;;;;12.30;9.48;;;4.40;89.70;;;;;;4947237;28;20600;-78
2023/02/09 10:52:47;;;;;;;18.80;10.02;;;4.50;89.00;;;;;;4934332;28;20299;-75
2023/02/09 10:55:19;;;;;;;17.10;10.15;;;4.40;88.10;;;;;;4933949;28;20244;-78
2023/02/09 10:57:48;;;;;;;14.18;10.25;;;4.50;88.50;;;;;;4934299;28;20294;-79
2023/02/09 11:00:34;;;;;;;14.15;9.90;;;4.40;87.60;;;;;;4934924;28;20283;-76
2023/02/09 11:03:01;;;;;;;14.43;9.15;;;4.50;87.30;;;;;;4933561;28;20236;-79
2023/02/09 11:05:33;;;;;;;12.38;9.35;;;4.50;87.10;;;;;;4942246;28;20244;-76
2023/02/09 11:08:16;;;;;;;15.07;9.70;;;4.50;86.90;;;;;;4991131;28;20521;-76
2023/02/09 11:10:51;;;;;;;14.25;9.27;;;4.50;87.20;;;;;;5035158;28;20297;-79
2023/02/09 11:13:23;;;;;;;13.77;9.48;;;4.60;87.30;;;;;;5012910;28;20218;-79
2023/02/09 11:16:16;;;;;;;13.70;9.88;;;4.70;87.30;;;;;;5016696;28;20319;-79
2023/02/09 11:18:46;;;;;;;14.00;9.57;;;4.70;86.90;;;;;;5017291;28;20285;-76
2023/02/09 11:21:20;;;;;;;13.68;10.20;;;4.80;87.10;;;;;;5029816;28;20222;-76
2023/02/09 11:23:56;;;;;;;12.73;9.88;;;4.80;86.50;;;;;;5013702;28;20221;-78
2023/02/09 11:26:33;;;;;;;13.20;9.48;;;4.80;86.00;;;;;;5032499;28;20316;-79
2023/02/09 11:29:09;;;;;;;12.38;8.77;;;4.90;86.20;;;;;;5023755;28;20221;-75
2023/02/09 11:31:45;;;;;;;10.52;8.15;;;4.90;86.40;;;;;;5013504;28;20222;-76
2023/02/09 11:34:43;;;;;;;13.32;8.00;;;5.00;86.30;;;;;;5012411;28;20237;-76
2023/02/09 11:37:24;;;;;;;12.50;9.55;;;4.90;85.20;;;;;;5013460;28;20229;-77
2023/02/09 11:39:59;;;;;;;13.25;9.13;;;4.90;85.60;;;;;;5028600;28;20226;-76
2023/02/09 11:42:45;;;;;;;14.15;9.90;;;5.00;85.00;;;;;;5014162;28;20312;-80
2023/02/09 11:45:20;;;;;;;12.52;8.77;;;5.00;85.10;;;;;;5019940;28;20214;-80
2023/02/09 11:48:08;;;;;;;11.23;8.35;;;5.00;84.80;;;;;;5016231;28;20567;-80
2023/02/09 11:50:41;;;;;;;15.10;10.13;;;5.00;84.60;;;;;;5021579;28;20532;-80
2023/02/09 11:53:17;;;;;;;12.32;8.73;;;5.10;84.10;;;;;;5022601;28;20225;-80
2023/02/09 11:55:53;;;;;;;12.48;8.70;;;5.10;84.20;;;;;;5015156;28;21257;-80
2023/02/09 11:58:30;;;;;;;10.88;9.48;;;5.10;84.10;;;;;;5013013;28;20222;-76
2023/02/09 12:01:05;;;;;;;9.88;8.18;;;5.20;84.00;;;;;;5013773;28;20229;-76
2023/02/09 12:03:36;;;;;;;9.75;7.82;;;5.20;83.80;;;;;;5018192;28;20321;-79
2023/02/09 12:06:05;;;;;;;11.75;8.75;;;5.20;83.20;;;;;;5028477;28;20602;-79
2023/02/09 12:08:45;;;;;;;11.65;8.63;;;5.20;82.50;;;;;;5033134;28;20295;-79
2023/02/09 12:11:23;;;;;;;9.65;8.02;;;5.20;82.10;;;;;;5016483;28;20229;-79
2023/02/09 12:14:04;;;;;;;11.30;8.68;;;5.20;81.90;;;;;;5018140;28;20222;-79
2023/02/09 12:16:37;;;;;;;10.95;7.88;;;5.20;81.40;;;;;;5015598;28;20225;-79
2023/02/09 12:19:13;;;;;;;11.30;7.95;;;5.30;82.00;;;;;;5015843;28;20226;-78
2023/02/09 12:21:47;;;;;;;9.88;8.15;;;5.30;82.30;;;;;;4998445;28;20316;-76
2023/02/09 12:24:33;;;;;;;10.45;8.68;;;5.30;81.50;;;;;;5023220;28;20225;-78
2023/02/09 12:27:00;;;;;;;9.48;8.48;;;5.30;81.80;;;;;;5027121;28;20236;-78
2023/02/09 12:29:38;;;;;;;14.93;8.70;;;5.40;82.50;;;;;;5033224;28;20575;-79
2023/02/09 12:32:42;;;;;;;11.02;8.77;;;5.40;82.00;;;;;;5023225;28;20244;-79
2023/02/09 12:35:27;;;;;;;11.10;9.40;;;5.30;82.20;;;;;;5028536;28;20232;-79
2023/02/09 12:38:16;;;;;;;11.30;8.40;;;5.40;82.20;;;;;;5032023;28;20225;-79
2023/02/09 12:40:43;;;;;;;12.35;8.15;;;5.40;82.10;;;;;;5022642;28;20233;-76
2023/02/09 12:43:26;;;;;;;20.13;13.65;;;5.40;82.20;;;;;;5021617;28;20249;-78
2023/02/09 12:46:23;;;;;;;15.20;12.80;;;5.40;82.50;;;;;;5032355;28;20237;-79
2023/02/09 12:49:08;;;;;;;15.25;10.90;;;5.50;83.00;;;;;;5005068;28;20217;-80
2023/02/09 12:51:42;;;;;;;14.15;8.90;;;5.50;83.10;;;;;;5029324;28;20683;-79
2023/02/09 12:54:30;;;;;;;13.07;9.10;;;5.50;83.00;;;;;;5021158;28;20225;-75
2023/02/09 12:57:48;;;;;;;9.73;8.10;;;5.60;83.30;;;;;;5032086;28;20228;-78
2023/02/09 13:00:53;;;;;;;11.23;8.00;;;5.60;83.50;;;;;;5025713;28;20659;-80
2023/02/09 13:03:23;;;;;;;11.45;8.05;;;5.70;83.80;;;;;;5023407;28;20345;-78